sensor_id;sensor_type;location;lat;lon;timestamp;P1;durP1;ratioP1;P2;durP2;ratioP2
1062;SDS011;520;50.932;6.962;2023-05-07T00:02:07;4.43;;;2.97;;
1062;SDS011;520;50.932;6.962;2023-05-07T00:04:34;3.13;;;2.87;;
1062;SDS011;520;50.932;6.962;2023-05-07T00:07:04;2.60;;;2.40;;
1062;SDS011;520;50.932;6.962;2023-05-07T00:09:32;2.90;;;2.70;;
1062;SDS011;520;50.932;6.962;2023-05-07T00:11:59;2.80;;;2.60;;
1062;SDS011;520;50.932;6.962;2023-05-07T00:14:27;3.57;;;2.40;;
1062;SDS011;520;50.932;6.962;2023-05-07T00:16:57;2.90;;;2.70;;
1062;SDS011;520;50.932;6.962;2023-05-07T00:19:24;3.03;;;2.80;;
1062;SDS011;520;50.932;6.962;2023-05-07T00:21:51;2.47;;;2.27;;
1062;SDS011;520;50.932;6.962;2023-05-07T00:24:20;2.93;;;2.20;;
1062;SDS011;520;50.932;6.962;2023-05-07T00:26:47;3.37;;;2.60;;
1062;SDS011;520;50.932;6.962;2023-05-07T00:29:13;2.93;;;2.73;;
1062;SDS011;520;50.932;6.962;2023-05-07T00:31:40;2.70;;;2.50;;
1062;SDS011;520;50.932;6.962;2023-05-07T00:34:07;2.80;;;2.60;;
1062;SDS011;520;50.932;6.962;2023-05-07T00:36:34;2.83;;;2.63;;
1062;SDS011;520;50.932;6.962;2023-05-07T00:39:01;3.13;;;2.83;;
1062;SDS011;520;50.932;6.962;2023-05-07T00:41:29;3.37;;;2.87;;
1062;SDS011;520;50.932;6.962;2023-05-07T00:43:59;2.67;;;2.47;;
1062;SDS011;520;50.932;6.962;2023-05-07T00:46:26;3.60;;;2.60;;
1062;SDS011;520;50.932;6.962;2023-05-07T00:48:53;2.70;;;2.50;;
1062;SDS011;520;50.932;6.962;2023-05-07T00:51:21;3.43;;;2.90;;
1062;SDS011;520;50.932;6.962;2023-05-07T00:53:49;2.80;;;2.60;;
1062;SDS011;520;50.932;6.962;2023-05-07T00:56:16;3.77;;;2.90;;
1062;SDS011;520;50.932;6.962;2023-05-07T00:58:43;3.80;;;2.90;;
1062;SDS011;520;50.932;6.962;2023-05-07T01:01:10;2.73;;;2.50;;
1062;SDS011;520;50.932;6.962;2023-05-07T01:03:37;3.07;;;2.87;;
1062;SDS011;520;50.932;6.962;2023-05-07T01:06:04;3.10;;;2.67;;
1062;SDS011;520;50.932;6.962;2023-05-07T01:08:33;2.70;;;2.50;;
1062;SDS011;520;50.932;6.962;2023-05-07T01:11:01;3.20;;;2.90;;
1062;SDS011;520;50.932;6.962;2023-05-07T01:13:28;2.30;;;2.10;;
1062;SDS011;520;50.932;6.962;2023-05-07T01:15:56;2.40;;;2.10;;
1062;SDS011;520;50.932;6.962;2023-05-07T01:18:23;2.40;;;2.17;;
1062;SDS011;520;50.932;6.962;2023-05-07T01:20:52;2.43;;;2.23;;
1062;SDS011;520;50.932;6.962;2023-05-07T01:23:21;1.90;;;1.77;;
1062;SDS011;520;50.932;6.962;2023-05-07T01:25:52;2.53;;;2.30;;
1062;SDS011;520;50.932;6.962;2023-05-07T01:28:19;2.47;;;2.27;;
1062;SDS011;520;50.932;6.962;2023-05-07T01:30:50;2.50;;;1.90;;
1062;SDS011;520;50.932;6.962;2023-05-07T01:33:22;2.83;;;2.30;;
1062;SDS011;520;50.932;6.962;2023-05-07T01:35:52;2.10;;;2.00;;
1062;SDS011;520;50.932;6.962;2023-05-07T01:38:20;2.63;;;2.23;;
1062;SDS011;520;50.932;6.962;2023-05-07T01:40:48;2.60;;;1.90;;
1062;SDS011;520;50.932;6.962;2023-05-07T01:43:15;2.43;;;1.80;;
1062;SDS011;520;50.932;6.962;2023-05-07T01:45:42;2.30;;;2.00;;
1062;SDS011;520;50.932;6.962;2023-05-07T01:48:10;1.90;;;1.80;;
1062;SDS011;520;50.932;6.962;2023-05-07T01:50:38;2.20;;;2.10;;
1062;SDS011;520;50.932;6.962;2023-05-07T01:53:06;2.17;;;1.97;;
1062;SDS011;520;50.932;6.962;2023-05-07T01:55:33;2.57;;;2.37;;
1062;SDS011;520;50.932;6.962;2023-05-07T01:58:00;2.90;;;2.57;;
1062;SDS011;520;50.932;6.962;2023-05-07T02:00:27;2.80;;;2.30;;
1062;SDS011;520;50.932;6.962;2023-05-07T02:02:54;2.63;;;2.43;;
1062;SDS011;520;50.932;6.962;2023-05-07T02:05:21;2.40;;;2.13;;
1062;SDS011;520;50.932;6.962;2023-05-07T02:07:49;3.07;;;2.87;;
1062;SDS011;520;50.932;6.962;2023-05-07T02:10:16;2.20;;;1.90;;
1062;SDS011;520;50.932;6.962;2023-05-07T02:12:42;3.87;;;2.50;;
1062;SDS011;520;50.932;6.962;2023-05-07T02:15:09;2.40;;;2.20;;
1062;SDS011;520;50.932;6.962;2023-05-07T02:17:57;3.13;;;2.50;;
1062;SDS011;520;50.932;6.962;2023-05-07T02:20:32;2.87;;;1.87;;
1062;SDS011;520;50.932;6.962;2023-05-07T02:22:59;2.53;;;2.33;;
1062;SDS011;520;50.932;6.962;2023-05-07T02:25:26;2.43;;;2.17;;
1062;SDS011;520;50.932;6.962;2023-05-07T02:27:53;3.13;;;2.30;;
1062;SDS011;520;50.932;6.962;2023-05-07T02:30:19;2.40;;;2.20;;
1062;SDS011;520;50.932;6.962;2023-05-07T02:32:47;1.90;;;1.80;;
1062;SDS011;520;50.932;6.962;2023-05-07T02:35:14;3.83;;;2.23;;
1062;SDS011;520;50.932;6.962;2023-05-07T02:37:40;2.37;;;2.17;;
1062;SDS011;520;50.932;6.962;2023-05-07T02:40:07;2.93;;;2.47;;
1062;SDS011;520;50.932;6.962;2023-05-07T02:42:35;2.27;;;2.17;;
1062;SDS011;520;50.932;6.962;2023-05-07T02:45:01;2.50;;;2.40;;
1062;SDS011;520;50.932;6.962;2023-05-07T02:47:28;2.37;;;2.17;;
1062;SDS011;520;50.932;6.962;2023-05-07T02:49:55;3.00;;;2.53;;
1062;SDS011;520;50.932;6.962;2023-05-07T02:52:22;2.30;;;2.10;;
1062;SDS011;520;50.932;6.962;2023-05-07T02:54:48;4.00;;;2.80;;
1062;SDS011;520;50.932;6.962;2023-05-07T02:57:15;2.50;;;2.30;;
1062;SDS011;520;50.932;6.962;2023-05-07T02:59:42;2.93;;;2.73;;
1062;SDS011;520;50.932;6.962;2023-05-07T03:02:09;2.07;;;1.97;;
1062;SDS011;520;50.932;6.962;2023-05-07T03:04:36;2.50;;;2.03;;
1062;SDS011;520;50.932;6.962;2023-05-07T03:07:03;2.90;;;2.70;;
1062;SDS011;520;50.932;6.962;2023-05-07T03:09:29;2.63;;;2.40;;
1062;SDS011;520;50.932;6.962;2023-05-07T03:11:56;2.23;;;2.03;;
1062;SDS011;520;50.932;6.962;2023-05-07T03:14:23;2.50;;;2.30;;
1062;SDS011;520;50.932;6.962;2023-05-07T03:16:50;3.03;;;2.83;;
1062;SDS011;520;50.932;6.962;2023-05-07T03:19:16;2.53;;;2.30;;
1062;SDS011;520;50.932;6.962;2023-05-07T03:21:43;5.10;;;2.20;;
1062;SDS011;520;50.932;6.962;2023-05-07T03:24:10;3.37;;;2.53;;
1062;SDS011;520;50.932;6.962;2023-05-07T03:26:36;2.53;;;2.33;;
1062;SDS011;520;50.932;6.962;2023-05-07T03:29:03;2.23;;;2.13;;
1062;SDS011;520;50.932;6.962;2023-05-07T03:31:30;2.97;;;2.63;;
1062;SDS011;520;50.932;6.962;2023-05-07T03:33:57;2.50;;;2.30;;
1062;SDS011;520;50.932;6.962;2023-05-07T03:36:23;2.43;;;2.33;;
1062;SDS011;520;50.932;6.962;2023-05-07T03:38:52;2.80;;;2.20;;
1062;SDS011;520;50.932;6.962;2023-05-07T03:41:19;2.57;;;2.37;;
1062;SDS011;520;50.932;6.962;2023-05-07T03:43:46;2.47;;;2.27;;
1062;SDS011;520;50.932;6.962;2023-05-07T03:46:13;3.70;;;2.83;;
1062;SDS011;520;50.932;6.962;2023-05-07T03:48:39;3.03;;;2.67;;
1062;SDS011;520;50.932;6.962;2023-05-07T03:51:06;2.80;;;2.60;;
1062;SDS011;520;50.932;6.962;2023-05-07T03:53:33;2.40;;;2.20;;
1062;SDS011;520;50.932;6.962;2023-05-07T03:56:00;2.70;;;2.50;;
1062;SDS011;520;50.932;6.962;2023-05-07T03:58:26;2.97;;;2.37;;
1062;SDS011;520;50.932;6.962;2023-05-07T04:00:53;2.80;;;2.60;;
1062;SDS011;520;50.932;6.962;2023-05-07T04:03:20;2.83;;;2.63;;
1062;SDS011;520;50.932;6.962;2023-05-07T04:05:47;2.53;;;2.27;;
1062;SDS011;520;50.932;6.962;2023-05-07T04:08:13;3.10;;;2.67;;
1062;SDS011;520;50.932;6.962;2023-05-07T04:10:40;3.20;;;2.43;;
1062;SDS011;520;50.932;6.962;2023-05-07T04:13:07;2.30;;;2.20;;
1062;SDS011;520;50.932;6.962;2023-05-07T04:15:34;2.20;;;2.10;;
1062;SDS011;520;50.932;6.962;2023-05-07T04:18:02;3.07;;;2.87;;
1062;SDS011;520;50.932;6.962;2023-05-07T04:20:28;3.30;;;2.70;;
1062;SDS011;520;50.932;6.962;2023-05-07T04:22:55;3.00;;;2.70;;
1062;SDS011;520;50.932;6.962;2023-05-07T04:25:22;2.87;;;1.93;;
1062;SDS011;520;50.932;6.962;2023-05-07T04:27:53;3.20;;;2.20;;
1062;SDS011;520;50.932;6.962;2023-05-07T04:30:23;2.20;;;2.00;;
1062;SDS011;520;50.932;6.962;2023-05-07T04:32:49;3.03;;;2.20;;
1062;SDS011;520;50.932;6.962;2023-05-07T04:35:17;2.53;;;2.33;;
1062;SDS011;520;50.932;6.962;2023-05-07T04:37:44;2.87;;;2.40;;
1062;SDS011;520;50.932;6.962;2023-05-07T04:40:11;2.97;;;2.30;;
1062;SDS011;520;50.932;6.962;2023-05-07T04:42:37;2.10;;;2.00;;
1062;SDS011;520;50.932;6.962;2023-05-07T04:45:05;2.40;;;2.20;;
1062;SDS011;520;50.932;6.962;2023-05-07T04:47:33;2.70;;;2.50;;
1062;SDS011;520;50.932;6.962;2023-05-07T04:50:00;2.27;;;2.07;;
1062;SDS011;520;50.932;6.962;2023-05-07T04:52:27;3.03;;;2.47;;
1062;SDS011;520;50.932;6.962;2023-05-07T04:54:53;2.80;;;2.60;;
1062;SDS011;520;50.932;6.962;2023-05-07T04:57:20;2.30;;;2.10;;
1062;SDS011;520;50.932;6.962;2023-05-07T04:59:47;2.20;;;2.00;;
1062;SDS011;520;50.932;6.962;2023-05-07T05:02:14;2.10;;;1.90;;
1062;SDS011;520;50.932;6.962;2023-05-07T05:05:05;1.63;;;1.53;;
1062;SDS011;520;50.932;6.962;2023-05-07T05:07:37;3.73;;;2.40;;
1062;SDS011;520;50.932;6.962;2023-05-07T05:10:11;1.83;;;1.67;;
1062;SDS011;520;50.932;6.962;2023-05-07T05:12:43;1.83;;;1.73;;
1062;SDS011;520;50.932;6.962;2023-05-07T05:15:29;1.80;;;1.70;;
1062;SDS011;520;50.932;6.962;2023-05-07T05:18:07;1.93;;;1.73;;
1062;SDS011;520;50.932;6.962;2023-05-07T05:20:57;1.60;;;1.50;;
1062;SDS011;520;50.932;6.962;2023-05-07T05:23:31;1.83;;;1.63;;
1062;SDS011;520;50.932;6.962;2023-05-07T05:26:11;1.70;;;1.60;;
1062;SDS011;520;50.932;6.962;2023-05-07T05:28:51;2.00;;;1.67;;
1062;SDS011;520;50.932;6.962;2023-05-07T05:31:26;2.27;;;2.17;;
1062;SDS011;520;50.932;6.962;2023-05-07T05:34:29;1.77;;;1.60;;
1062;SDS011;520;50.932;6.962;2023-05-07T05:37:01;3.00;;;1.87;;
1062;SDS011;520;50.932;6.962;2023-05-07T05:39:53;1.90;;;1.80;;
1062;SDS011;520;50.932;6.962;2023-05-07T05:42:36;1.60;;;1.50;;
1062;SDS011;520;50.932;6.962;2023-05-07T05:45:23;1.73;;;1.63;;
1062;SDS011;520;50.932;6.962;2023-05-07T05:48:17;2.07;;;1.87;;
1062;SDS011;520;50.932;6.962;2023-05-07T05:50:47;1.73;;;1.63;;
1062;SDS011;520;50.932;6.962;2023-05-07T05:53:30;2.00;;;1.90;;
1062;SDS011;520;50.932;6.962;2023-05-07T05:56:05;1.53;;;1.20;;
1062;SDS011;520;50.932;6.962;2023-05-07T05:58:35;1.93;;;1.83;;
1062;SDS011;520;50.932;6.962;2023-05-07T06:01:18;1.63;;;1.53;;
1062;SDS011;520;50.932;6.962;2023-05-07T06:03:53;1.80;;;1.70;;
1062;SDS011;520;50.932;6.962;2023-05-07T06:06:24;1.50;;;1.50;;
1062;SDS011;520;50.932;6.962;2023-05-07T06:09:01;1.90;;;1.70;;
1062;SDS011;520;50.932;6.962;2023-05-07T06:14:27;1.87;;;1.67;;
1062;SDS011;520;50.932;6.962;2023-05-07T06:17:13;1.90;;;1.80;;
1062;SDS011;520;50.932;6.962;2023-05-07T06:19:59;1.90;;;1.77;;
1062;SDS011;520;50.932;6.962;2023-05-07T06:22:30;1.50;;;1.40;;
1062;SDS011;520;50.932;6.962;2023-05-07T06:25:14;2.53;;;1.80;;
1062;SDS011;520;50.932;6.962;2023-05-07T06:27:42;1.80;;;1.70;;
1062;SDS011;520;50.932;6.962;2023-05-07T06:30:20;1.90;;;1.80;;
1062;SDS011;520;50.932;6.962;2023-05-07T06:32:53;1.60;;;1.50;;
1062;SDS011;520;50.932;6.962;2023-05-07T06:35:46;1.53;;;1.43;;
1062;SDS011;520;50.932;6.962;2023-05-07T06:38:15;2.20;;;1.33;;
1062;SDS011;520;50.932;6.962;2023-05-07T06:40:48;1.50;;;1.40;;
1062;SDS011;520;50.932;6.962;2023-05-07T06:46:13;2.17;;;2.00;;
1062;SDS011;520;50.932;6.962;2023-05-07T06:48:55;2.43;;;2.20;;
1062;SDS011;520;50.932;6.962;2023-05-07T06:51:52;2.33;;;2.13;;
1062;SDS011;520;50.932;6.962;2023-05-07T06:54:45;1.60;;;1.50;;
1062;SDS011;520;50.932;6.962;2023-05-07T06:57:24;2.20;;;1.80;;
1062;SDS011;520;50.932;6.962;2023-05-07T07:00:00;1.50;;;1.40;;
1062;SDS011;520;50.932;6.962;2023-05-07T07:02:29;2.10;;;1.40;;
1062;SDS011;520;50.932;6.962;2023-05-07T07:04:58;1.70;;;1.50;;
1062;SDS011;520;50.932;6.962;2023-05-07T07:07:31;2.53;;;1.83;;
1062;SDS011;520;50.932;6.962;2023-05-07T07:10:13;1.60;;;1.50;;
1062;SDS011;520;50.932;6.962;2023-05-07T07:12:50;2.87;;;1.30;;
1062;SDS011;520;50.932;6.962;2023-05-07T07:15:41;1.70;;;1.60;;
1062;SDS011;520;50.932;6.962;2023-05-07T07:18:30;2.40;;;1.60;;
1062;SDS011;520;50.932;6.962;2023-05-07T07:21:11;1.83;;;1.60;;
1062;SDS011;520;50.932;6.962;2023-05-07T07:24:00;1.47;;;1.40;;
1062;SDS011;520;50.932;6.962;2023-05-07T07:26:41;2.40;;;1.83;;
1062;SDS011;520;50.932;6.962;2023-05-07T07:29:23;1.70;;;1.60;;
1062;SDS011;520;50.932;6.962;2023-05-07T07:32:05;1.97;;;1.60;;
1062;SDS011;520;50.932;6.962;2023-05-07T07:34:42;2.23;;;2.03;;
1062;SDS011;520;50.932;6.962;2023-05-07T07:37:14;1.70;;;1.50;;
1062;SDS011;520;50.932;6.962;2023-05-07T07:40:13;1.87;;;1.50;;
1062;SDS011;520;50.932;6.962;2023-05-07T07:42:57;1.60;;;1.50;;
1062;SDS011;520;50.932;6.962;2023-05-07T07:45:33;1.30;;;1.20;;
1062;SDS011;520;50.932;6.962;2023-05-07T07:48:44;3.33;;;1.63;;
1062;SDS011;520;50.932;6.962;2023-05-07T07:51:20;3.20;;;1.53;;
1062;SDS011;520;50.932;6.962;2023-05-07T07:54:15;1.60;;;1.50;;
1062;SDS011;520;50.932;6.962;2023-05-07T07:56:58;1.60;;;1.50;;
1062;SDS011;520;50.932;6.962;2023-05-07T07:59:43;2.60;;;1.97;;
1062;SDS011;520;50.932;6.962;2023-05-07T08:02:18;1.87;;;1.77;;
1062;SDS011;520;50.932;6.962;2023-05-07T08:05:26;1.73;;;1.63;;
1062;SDS011;520;50.932;6.962;2023-05-07T08:08:20;1.80;;;1.70;;
1062;SDS011;520;50.932;6.962;2023-05-07T08:11:08;2.10;;;1.50;;
1062;SDS011;520;50.932;6.962;2023-05-07T08:13:58;1.80;;;1.70;;
1062;SDS011;520;50.932;6.962;2023-05-07T08:17:06;1.60;;;1.50;;
1062;SDS011;520;50.932;6.962;2023-05-07T08:20:04;1.70;;;1.60;;
1062;SDS011;520;50.932;6.962;2023-05-07T08:22:45;1.60;;;1.50;;
1062;SDS011;520;50.932;6.962;2023-05-07T08:25:16;1.40;;;1.30;;
1062;SDS011;520;50.932;6.962;2023-05-07T08:27:59;1.90;;;1.43;;
1062;SDS011;520;50.932;6.962;2023-05-07T08:30:33;1.90;;;1.70;;
1062;SDS011;520;50.932;6.962;2023-05-07T08:33:08;1.70;;;1.60;;
1062;SDS011;520;50.932;6.962;2023-05-07T08:38:39;1.73;;;1.63;;
1062;SDS011;520;50.932;6.962;2023-05-07T08:41:34;1.77;;;1.53;;
1062;SDS011;520;50.932;6.962;2023-05-07T08:44:36;2.03;;;1.87;;
1062;SDS011;520;50.932;6.962;2023-05-07T08:47:40;3.30;;;1.70;;
1062;SDS011;520;50.932;6.962;2023-05-07T08:50:45;1.70;;;1.60;;
1062;SDS011;520;50.932;6.962;2023-05-07T08:59:52;1.53;;;1.43;;
1062;SDS011;520;50.932;6.962;2023-05-07T09:02:59;4.00;;;1.63;;
1062;SDS011;520;50.932;6.962;2023-05-07T09:05:49;1.90;;;1.70;;
1062;SDS011;520;50.932;6.962;2023-05-07T09:08:28;1.80;;;1.70;;
1062;SDS011;520;50.932;6.962;2023-05-07T09:11:59;1.83;;;1.53;;
1062;SDS011;520;50.932;6.962;2023-05-07T09:18:01;1.50;;;1.40;;
1062;SDS011;520;50.932;6.962;2023-05-07T09:20:52;2.00;;;1.40;;
1062;SDS011;520;50.932;6.962;2023-05-07T09:23:50;1.40;;;1.30;;
1062;SDS011;520;50.932;6.962;2023-05-07T09:26:55;2.73;;;1.37;;
1062;SDS011;520;50.932;6.962;2023-05-07T09:29:47;2.50;;;1.63;;
1062;SDS011;520;50.932;6.962;2023-05-07T09:32:57;1.20;;;1.10;;
1062;SDS011;520;50.932;6.962;2023-05-07T09:35:47;1.50;;;1.40;;
1062;SDS011;520;50.932;6.962;2023-05-07T09:38:44;1.50;;;1.40;;
1062;SDS011;520;50.932;6.962;2023-05-07T09:44:47;1.00;;;1.00;;
1062;SDS011;520;50.932;6.962;2023-05-07T09:47:39;1.50;;;1.40;;
1062;SDS011;520;50.932;6.962;2023-05-07T09:50:51;1.83;;;1.37;;
1062;SDS011;520;50.932;6.962;2023-05-07T09:53:36;1.47;;;1.37;;
1062;SDS011;520;50.932;6.962;2023-05-07T09:56:56;1.57;;;1.30;;
1062;SDS011;520;50.932;6.962;2023-05-07T10:00:05;1.53;;;1.30;;
1062;SDS011;520;50.932;6.962;2023-05-07T10:03:03;1.00;;;1.00;;
1062;SDS011;520;50.932;6.962;2023-05-07T10:05:41;1.47;;;1.37;;
1062;SDS011;520;50.932;6.962;2023-05-07T10:08:35;4.10;;;1.30;;
1062;SDS011;520;50.932;6.962;2023-05-07T10:11:44;0.93;;;0.93;;
1062;SDS011;520;50.932;6.962;2023-05-07T10:14:26;1.50;;;1.40;;
1062;SDS011;520;50.932;6.962;2023-05-07T10:17:25;1.50;;;1.40;;
1062;SDS011;520;50.932;6.962;2023-05-07T10:20:29;1.67;;;1.57;;
1062;SDS011;520;50.932;6.962;2023-05-07T10:23:21;1.40;;;1.30;;
1062;SDS011;520;50.932;6.962;2023-05-07T10:26:14;2.50;;;1.33;;
1062;SDS011;520;50.932;6.962;2023-05-07T10:32:43;1.63;;;1.53;;
1062;SDS011;520;50.932;6.962;2023-05-07T10:35:29;1.50;;;1.27;;
1062;SDS011;520;50.932;6.962;2023-05-07T10:38:24;1.50;;;1.40;;
1062;SDS011;520;50.932;6.962;2023-05-07T10:41:02;1.77;;;1.27;;
1062;SDS011;520;50.932;6.962;2023-05-07T10:43:43;2.00;;;1.47;;
1062;SDS011;520;50.932;6.962;2023-05-07T10:59:33;1.93;;;1.33;;
1062;SDS011;520;50.932;6.962;2023-05-07T11:02:24;1.60;;;1.50;;
1062;SDS011;520;50.932;6.962;2023-05-07T11:05:38;1.40;;;1.30;;
1062;SDS011;520;50.932;6.962;2023-05-07T11:08:20;1.27;;;1.17;;
1062;SDS011;520;50.932;6.962;2023-05-07T11:11:00;1.50;;;1.40;;
1062;SDS011;520;50.932;6.962;2023-05-07T11:16:41;1.07;;;1.07;;
1062;SDS011;520;50.932;6.962;2023-05-07T11:19:48;1.30;;;1.20;;
1062;SDS011;520;50.932;6.962;2023-05-07T11:22:36;1.30;;;1.20;;
1062;SDS011;520;50.932;6.962;2023-05-07T11:25:14;1.40;;;1.30;;
1062;SDS011;520;50.932;6.962;2023-05-07T11:28:09;1.27;;;1.20;;
1062;SDS011;520;50.932;6.962;2023-05-07T11:31:04;1.20;;;1.10;;
1062;SDS011;520;50.932;6.962;2023-05-07T11:33:52;1.13;;;1.13;;
1062;SDS011;520;50.932;6.962;2023-05-07T11:36:48;0.97;;;0.97;;
1062;SDS011;520;50.932;6.962;2023-05-07T11:39:48;1.87;;;1.30;;
1062;SDS011;520;50.932;6.962;2023-05-07T11:42:40;1.50;;;1.40;;
1062;SDS011;520;50.932;6.962;2023-05-07T11:45:25;1.73;;;1.37;;
1062;SDS011;520;50.932;6.962;2023-05-07T11:47:55;1.40;;;1.30;;
1062;SDS011;520;50.932;6.962;2023-05-07T11:50:25;1.70;;;1.60;;
1062;SDS011;520;50.932;6.962;2023-05-07T11:53:15;1.40;;;1.30;;
1062;SDS011;520;50.932;6.962;2023-05-07T11:55:58;1.53;;;1.20;;
1062;SDS011;520;50.932;6.962;2023-05-07T11:58:46;1.93;;;1.77;;
1062;SDS011;520;50.932;6.962;2023-05-07T12:01:25;2.60;;;1.30;;
1062;SDS011;520;50.932;6.962;2023-05-07T12:04:07;1.50;;;1.40;;
1062;SDS011;520;50.932;6.962;2023-05-07T12:06:56;1.63;;;1.33;;
1062;SDS011;520;50.932;6.962;2023-05-07T12:09:32;1.30;;;1.20;;
1062;SDS011;520;50.932;6.962;2023-05-07T12:12:09;1.60;;;1.50;;
1062;SDS011;520;50.932;6.962;2023-05-07T12:14:52;3.00;;;1.60;;
1062;SDS011;520;50.932;6.962;2023-05-07T12:17:24;1.43;;;1.33;;
1062;SDS011;520;50.932;6.962;2023-05-07T12:20:22;1.40;;;1.30;;
1062;SDS011;520;50.932;6.962;2023-05-07T12:23:02;1.87;;;1.60;;
1062;SDS011;520;50.932;6.962;2023-05-07T12:25:39;1.40;;;1.30;;
1062;SDS011;520;50.932;6.962;2023-05-07T12:28:35;1.40;;;1.30;;
1062;SDS011;520;50.932;6.962;2023-05-07T12:31:11;1.40;;;1.30;;
1062;SDS011;520;50.932;6.962;2023-05-07T12:33:46;1.57;;;1.47;;
1062;SDS011;520;50.932;6.962;2023-05-07T12:36:17;1.30;;;1.30;;
1062;SDS011;520;50.932;6.962;2023-05-07T12:38:52;1.50;;;1.40;;
1062;SDS011;520;50.932;6.962;2023-05-07T12:41:25;1.80;;;1.70;;
1062;SDS011;520;50.932;6.962;2023-05-07T12:43:56;1.47;;;1.37;;
1062;SDS011;520;50.932;6.962;2023-05-07T12:46:40;1.80;;;1.70;;
1062;SDS011;520;50.932;6.962;2023-05-07T12:49:14;1.60;;;1.50;;
1062;SDS011;520;50.932;6.962;2023-05-07T12:55:07;1.87;;;1.23;;
1062;SDS011;520;50.932;6.962;2023-05-07T12:58:00;1.70;;;1.60;;
1062;SDS011;520;50.932;6.962;2023-05-07T13:00:48;1.70;;;1.60;;
1062;SDS011;520;50.932;6.962;2023-05-07T13:03:30;1.83;;;1.43;;
1062;SDS011;520;50.932;6.962;2023-05-07T13:06:25;1.60;;;1.50;;
1062;SDS011;520;50.932;6.962;2023-05-07T13:08:54;2.27;;;1.77;;
1062;SDS011;520;50.932;6.962;2023-05-07T13:11:27;1.70;;;1.60;;
1062;SDS011;520;50.932;6.962;2023-05-07T13:14:13;1.30;;;1.20;;
1062;SDS011;520;50.932;6.962;2023-05-07T13:17:03;1.63;;;1.53;;
1062;SDS011;520;50.932;6.962;2023-05-07T13:19:47;1.90;;;1.80;;
1062;SDS011;520;50.932;6.962;2023-05-07T13:22:20;1.87;;;1.63;;
1062;SDS011;520;50.932;6.962;2023-05-07T13:24:59;1.70;;;1.60;;
1062;SDS011;520;50.932;6.962;2023-05-07T13:27:32;1.50;;;1.40;;
1062;SDS011;520;50.932;6.962;2023-05-07T13:30:04;1.50;;;1.40;;
1062;SDS011;520;50.932;6.962;2023-05-07T13:32:32;1.43;;;1.30;;
1062;SDS011;520;50.932;6.962;2023-05-07T13:35:32;1.97;;;1.50;;
1062;SDS011;520;50.932;6.962;2023-05-07T13:41:01;1.83;;;1.73;;
1062;SDS011;520;50.932;6.962;2023-05-07T13:43:34;1.87;;;1.77;;
1062;SDS011;520;50.932;6.962;2023-05-07T13:46:18;2.20;;;1.77;;
1062;SDS011;520;50.932;6.962;2023-05-07T13:49:23;1.70;;;1.60;;
1062;SDS011;520;50.932;6.962;2023-05-07T13:55:06;1.57;;;1.27;;
1062;SDS011;520;50.932;6.962;2023-05-07T13:58:32;1.90;;;1.80;;
1062;SDS011;520;50.932;6.962;2023-05-07T14:01:30;2.27;;;2.07;;
1062;SDS011;520;50.932;6.962;2023-05-07T14:04:19;1.87;;;1.77;;
1062;SDS011;520;50.932;6.962;2023-05-07T14:07:33;2.17;;;1.70;;
1062;SDS011;520;50.932;6.962;2023-05-07T14:10:05;2.90;;;1.77;;
1062;SDS011;520;50.932;6.962;2023-05-07T14:12:46;1.87;;;1.73;;
1062;SDS011;520;50.932;6.962;2023-05-07T14:15:14;2.00;;;1.70;;
1062;SDS011;520;50.932;6.962;2023-05-07T14:17:48;1.80;;;1.70;;
1062;SDS011;520;50.932;6.962;2023-05-07T14:20:22;2.70;;;2.00;;
1062;SDS011;520;50.932;6.962;2023-05-07T14:23:03;2.57;;;2.37;;
1062;SDS011;520;50.932;6.962;2023-05-07T14:25:44;2.83;;;2.63;;
1062;SDS011;520;50.932;6.962;2023-05-07T14:28:25;2.20;;;2.10;;
1062;SDS011;520;50.932;6.962;2023-05-07T14:30:54;2.10;;;2.00;;
1062;SDS011;520;50.932;6.962;2023-05-07T14:33:32;2.20;;;2.00;;
1062;SDS011;520;50.932;6.962;2023-05-07T14:36:23;2.03;;;1.83;;
1062;SDS011;520;50.932;6.962;2023-05-07T14:38:56;2.17;;;1.97;;
1062;SDS011;520;50.932;6.962;2023-05-07T14:41:29;2.20;;;2.00;;
1062;SDS011;520;50.932;6.962;2023-05-07T14:44:01;2.40;;;2.10;;
1062;SDS011;520;50.932;6.962;2023-05-07T14:46:34;2.77;;;1.77;;
1062;SDS011;520;50.932;6.962;2023-05-07T14:49:10;1.97;;;1.87;;
1062;SDS011;520;50.932;6.962;2023-05-07T14:54:18;2.17;;;1.97;;
1062;SDS011;520;50.932;6.962;2023-05-07T14:56:48;2.57;;;2.37;;
1062;SDS011;520;50.932;6.962;2023-05-07T14:59:18;4.10;;;3.70;;
1062;SDS011;520;50.932;6.962;2023-05-07T15:01:51;3.60;;;3.30;;
1062;SDS011;520;50.932;6.962;2023-05-07T15:04:23;3.03;;;2.30;;
1062;SDS011;520;50.932;6.962;2023-05-07T15:07:08;2.60;;;2.40;;
1062;SDS011;520;50.932;6.962;2023-05-07T15:10:03;3.07;;;2.87;;
1062;SDS011;520;50.932;6.962;2023-05-07T15:12:31;2.10;;;2.00;;
1062;SDS011;520;50.932;6.962;2023-05-07T15:15:14;2.40;;;2.20;;
1062;SDS011;520;50.932;6.962;2023-05-07T15:18:04;2.00;;;1.90;;
1062;SDS011;520;50.932;6.962;2023-05-07T15:20:40;2.27;;;2.07;;
1062;SDS011;520;50.932;6.962;2023-05-07T15:23:32;3.23;;;2.60;;
1062;SDS011;520;50.932;6.962;2023-05-07T15:26:08;2.40;;;2.20;;
1062;SDS011;520;50.932;6.962;2023-05-07T15:28:40;2.80;;;1.90;;
1062;SDS011;520;50.932;6.962;2023-05-07T15:31:09;2.30;;;2.10;;
1062;SDS011;520;50.932;6.962;2023-05-07T15:33:38;4.10;;;3.40;;
1062;SDS011;520;50.932;6.962;2023-05-07T15:36:10;2.77;;;1.83;;
1062;SDS011;520;50.932;6.962;2023-05-07T15:38:37;2.10;;;1.90;;
1062;SDS011;520;50.932;6.962;2023-05-07T15:41:12;2.13;;;2.03;;
1062;SDS011;520;50.932;6.962;2023-05-07T15:43:55;2.83;;;2.40;;
1062;SDS011;520;50.932;6.962;2023-05-07T15:46:51;2.30;;;2.10;;
1062;SDS011;520;50.932;6.962;2023-05-07T15:49:20;2.43;;;2.23;;
1062;SDS011;520;50.932;6.962;2023-05-07T15:52:05;3.63;;;2.23;;
1062;SDS011;520;50.932;6.962;2023-05-07T15:54:35;2.20;;;2.00;;
1062;SDS011;520;50.932;6.962;2023-05-07T15:57:11;2.30;;;2.10;;
1062;SDS011;520;50.932;6.962;2023-05-07T15:59:41;2.00;;;1.90;;
1062;SDS011;520;50.932;6.962;2023-05-07T16:02:23;1.80;;;1.70;;
1062;SDS011;520;50.932;6.962;2023-05-07T16:05:18;2.20;;;2.00;;
1062;SDS011;520;50.932;6.962;2023-05-07T16:07:54;2.07;;;1.87;;
1062;SDS011;520;50.932;6.962;2023-05-07T16:10:34;1.77;;;1.67;;
1062;SDS011;520;50.932;6.962;2023-05-07T16:13:14;1.97;;;1.87;;
1062;SDS011;520;50.932;6.962;2023-05-07T16:15:55;2.40;;;2.20;;
1062;SDS011;520;50.932;6.962;2023-05-07T16:18:43;2.00;;;1.90;;
1062;SDS011;520;50.932;6.962;2023-05-07T16:21:18;2.40;;;2.20;;
1062;SDS011;520;50.932;6.962;2023-05-07T16:24:06;2.10;;;2.00;;
1062;SDS011;520;50.932;6.962;2023-05-07T16:26:52;2.40;;;1.60;;
1062;SDS011;520;50.932;6.962;2023-05-07T16:29:35;2.00;;;1.90;;
1062;SDS011;520;50.932;6.962;2023-05-07T16:32:11;2.47;;;2.27;;
1062;SDS011;520;50.932;6.962;2023-05-07T16:34:52;2.43;;;2.23;;
1062;SDS011;520;50.932;6.962;2023-05-07T16:37:52;2.60;;;2.40;;
1062;SDS011;520;50.932;6.962;2023-05-07T16:40:24;3.50;;;2.10;;
1062;SDS011;520;50.932;6.962;2023-05-07T16:43:21;2.00;;;1.90;;
1062;SDS011;520;50.932;6.962;2023-05-07T16:46:07;2.60;;;2.30;;
1062;SDS011;520;50.932;6.962;2023-05-07T16:48:34;3.10;;;2.40;;
1062;SDS011;520;50.932;6.962;2023-05-07T16:51:10;2.47;;;1.70;;
1062;SDS011;520;50.932;6.962;2023-05-07T16:56:53;1.70;;;1.60;;
1062;SDS011;520;50.932;6.962;2023-05-07T16:59:32;2.10;;;1.70;;
1062;SDS011;520;50.932;6.962;2023-05-07T17:04:55;1.80;;;1.70;;
1062;SDS011;520;50.932;6.962;2023-05-07T17:07:35;2.30;;;2.10;;
1062;SDS011;520;50.932;6.962;2023-05-07T17:10:09;2.20;;;1.70;;
1062;SDS011;520;50.932;6.962;2023-05-07T17:12:42;1.40;;;1.30;;
1062;SDS011;520;50.932;6.962;2023-05-07T17:15:12;1.30;;;1.17;;
1062;SDS011;520;50.932;6.962;2023-05-07T17:17:56;1.60;;;1.50;;
1062;SDS011;520;50.932;6.962;2023-05-07T17:20:49;1.50;;;1.40;;
1062;SDS011;520;50.932;6.962;2023-05-07T17:23:21;1.50;;;1.20;;
1062;SDS011;520;50.932;6.962;2023-05-07T17:25:55;1.40;;;1.30;;
1062;SDS011;520;50.932;6.962;2023-05-07T17:28:48;1.90;;;1.70;;
1062;SDS011;520;50.932;6.962;2023-05-07T17:31:15;2.13;;;1.97;;
1062;SDS011;520;50.932;6.962;2023-05-07T17:33:56;13.40;;;4.80;;
1062;SDS011;520;50.932;6.962;2023-05-07T17:36:35;2.33;;;2.03;;
1062;SDS011;520;50.932;6.962;2023-05-07T17:39:15;2.20;;;2.00;;